createdAt,value
2023-01-13T00:01:12.352Z,6.64
2023-01-13T00:04:02.622Z,6.60
2023-01-13T00:06:54.190Z,6.57
2023-01-13T00:09:45.474Z,6.54
2023-01-13T00:12:35.744Z,6.51
2023-01-13T00:15:26.328Z,6.51
2023-01-13T00:18:16.646Z,6.50
2023-01-13T00:21:08.155Z,6.47
2023-01-13T00:23:58.441Z,6.44
2023-01-13T00:26:49.309Z,6.40
2023-01-13T00:29:39.644Z,6.39
2023-01-13T00:32:30.261Z,6.38
2023-01-13T00:35:20.785Z,6.36
2023-01-13T00:38:11.405Z,6.33
2023-01-13T00:41:03.688Z,6.29
2023-01-13T00:43:54.030Z,6.25
2023-01-13T00:46:44.524Z,6.23
2023-01-13T00:49:37.263Z,6.20
2023-01-13T00:52:27.725Z,6.17
2023-01-13T00:55:18.062Z,6.13
2023-01-13T00:58:08.619Z,6.08
2023-01-13T01:01:02.921Z,6.03
2023-01-13T01:03:54.901Z,5.99
2023-01-13T01:06:45.301Z,5.97
2023-01-13T01:09:35.755Z,5.96
2023-01-13T01:12:26.113Z,5.94
2023-01-13T01:15:16.690Z,5.93
2023-01-13T01:18:07.214Z,5.92
2023-01-13T01:21:00.519Z,5.91
2023-01-13T01:23:50.827Z,5.91
2023-01-13T01:26:42.033Z,5.92
2023-01-13T01:29:32.305Z,5.94
2023-01-13T01:32:22.890Z,5.95
2023-01-13T01:35:13.400Z,5.96
2023-01-13T01:38:03.615Z,5.97
2023-01-13T01:40:54.093Z,6.00
2023-01-13T01:44:02.831Z,6.01
2023-01-13T01:46:54.916Z,6.01
2023-01-13T01:49:49.347Z,6.03
2023-01-13T01:52:41.977Z,6.06
2023-01-13T01:55:35.015Z,6.06
2023-01-13T01:58:28.462Z,6.07
2023-01-13T02:01:19.078Z,6.09
2023-01-13T02:04:12.671Z,6.11
2023-01-13T02:07:03.653Z,6.11
2023-01-13T02:09:56.896Z,6.10
2023-01-13T02:12:49.262Z,6.11
2023-01-13T02:15:44.046Z,6.12
2023-01-13T02:18:40.646Z,6.12
2023-01-13T02:21:56.137Z,6.14
2023-01-13T02:24:57.523Z,6.13
2023-01-13T02:28:02.177Z,6.14
2023-01-13T02:31:11.716Z,6.16
2023-01-13T02:34:24.406Z,6.18
2023-01-13T02:37:16.342Z,6.20
2023-01-13T02:40:10.272Z,6.21
2023-01-13T02:43:21.282Z,6.24
2023-01-13T02:46:15.292Z,6.26
2023-01-13T02:49:07.485Z,6.26
2023-01-13T02:52:04.536Z,6.26
2023-01-13T02:54:58.616Z,6.24
2023-01-13T02:57:50.091Z,6.22
2023-01-13T03:00:40.487Z,6.21
2023-01-13T03:03:31.277Z,6.18
2023-01-13T03:06:32.662Z,6.17
2023-01-13T03:09:27.339Z,6.17
2023-01-13T03:12:18.936Z,6.18
2023-01-13T03:15:16.286Z,6.21
2023-01-13T03:18:11.270Z,6.23
2023-01-13T03:21:23.542Z,6.26
2023-01-13T03:24:18.360Z,6.27
2023-01-13T03:27:10.993Z,6.28
2023-01-13T03:30:05.101Z,6.30
2023-01-13T03:33:01.829Z,6.32
2023-01-13T03:35:53.443Z,6.33
2023-01-13T03:38:45.859Z,6.33
2023-01-13T03:41:37.957Z,6.35
2023-01-13T03:44:32.866Z,6.38
2023-01-13T03:47:52.534Z,6.42
2023-01-13T03:54:02.061Z,6.46
2023-01-13T03:56:55.902Z,6.47
2023-01-13T03:59:51.455Z,6.47
2023-01-13T04:02:54.879Z,6.48
2023-01-13T04:05:49.084Z,6.47
2023-01-13T04:08:43.810Z,6.45
2023-01-13T04:11:36.591Z,6.42
2023-01-13T04:14:28.389Z,6.38
2023-01-13T04:17:19.909Z,6.36
2023-01-13T04:20:12.864Z,6.32
2023-01-13T04:23:03.583Z,6.29
2023-01-13T04:25:53.929Z,6.26
2023-01-13T04:28:46.254Z,6.23
2023-01-13T04:31:37.127Z,6.21
2023-01-13T04:34:28.530Z,6.19
2023-01-13T04:37:18.985Z,6.17
2023-01-13T04:40:11.352Z,6.15
2023-01-13T04:43:01.984Z,6.14
2023-01-13T04:45:52.566Z,6.13
2023-01-13T04:48:42.946Z,6.10
2023-01-13T04:51:33.407Z,6.07
2023-01-13T04:54:23.736Z,6.08
2023-01-13T04:57:13.960Z,6.10
2023-01-13T05:00:05.334Z,6.10
2023-01-13T05:02:55.638Z,6.11
2023-01-13T05:05:46.124Z,6.13
2023-01-13T05:08:36.500Z,6.14
2023-01-13T05:11:45.832Z,6.15
2023-01-13T05:14:53.615Z,6.15
2023-01-13T05:17:44.624Z,6.15
2023-01-13T05:20:35.167Z,6.15
2023-01-13T05:23:43.116Z,6.18
2023-01-13T05:26:33.617Z,6.19
2023-01-13T05:29:26.429Z,6.18
2023-01-13T05:32:16.891Z,6.20
2023-01-13T05:35:07.835Z,6.23
2023-01-13T05:37:58.291Z,6.25
2023-01-13T05:41:06.438Z,6.26
2023-01-13T05:43:56.846Z,6.23
2023-01-13T05:46:47.478Z,6.21
2023-01-13T05:49:38.157Z,6.19
2023-01-13T05:52:28.879Z,6.18
2023-01-13T05:55:19.294Z,6.16
2023-01-13T05:58:10.618Z,6.16
2023-01-13T06:01:04.515Z,6.18
2023-01-13T06:03:56.874Z,6.21
2023-01-13T06:06:49.001Z,6.24
2023-01-13T06:09:39.577Z,6.26
2023-01-13T06:12:29.936Z,6.26
2023-01-13T06:15:20.694Z,6.24
2023-01-13T06:18:12.033Z,6.22
2023-01-13T06:21:02.410Z,6.20
2023-01-13T06:23:55.197Z,6.19
2023-01-13T06:26:45.881Z,6.17
2023-01-13T06:29:36.469Z,6.15
2023-01-13T06:32:28.639Z,6.14
2023-01-13T06:35:20.668Z,6.13
2023-01-13T06:38:14.519Z,6.13
2023-01-13T06:41:05.260Z,6.11
2023-01-13T06:43:56.020Z,6.10
2023-01-13T06:46:46.743Z,6.09
2023-01-13T06:49:37.323Z,6.10
2023-01-13T06:52:30.989Z,6.12
2023-01-13T06:55:21.503Z,6.14
2023-01-13T06:58:11.854Z,6.15
2023-01-13T07:01:03.180Z,6.16
2023-01-13T07:03:53.651Z,6.18
2023-01-13T07:06:44.255Z,6.18
2023-01-13T07:09:34.861Z,6.18
2023-01-13T07:12:25.085Z,6.16
2023-01-13T07:15:22.010Z,6.15
2023-01-13T07:18:12.587Z,6.15
2023-01-13T07:21:03.915Z,6.17
2023-01-13T07:23:54.444Z,6.18
2023-01-13T07:26:44.950Z,6.20
2023-01-13T07:29:35.473Z,6.21
2023-01-13T07:32:26.018Z,6.21
2023-01-13T07:35:17.669Z,6.19
2023-01-13T07:38:08.858Z,6.17
2023-01-13T07:41:22.162Z,6.15
2023-01-13T07:44:14.272Z,6.13
2023-01-13T07:47:08.763Z,6.13
2023-01-13T07:49:59.265Z,6.13
2023-01-13T07:52:49.744Z,6.11
2023-01-13T07:55:43.965Z,6.08
2023-01-13T07:58:34.350Z,6.08
2023-01-13T08:01:27.670Z,6.08
2023-01-13T08:04:18.318Z,6.09
2023-01-13T08:07:08.744Z,6.09
2023-01-13T08:09:59.294Z,6.09
2023-01-13T08:13:07.227Z,6.09
2023-01-13T08:16:01.238Z,6.09
2023-01-13T08:18:51.738Z,6.11
2023-01-13T08:21:42.227Z,6.12
2023-01-13T08:24:32.722Z,6.12
2023-01-13T08:27:23.144Z,6.13
2023-01-13T08:30:13.772Z,6.14
2023-01-13T08:33:07.860Z,6.15
2023-01-13T08:35:58.521Z,6.15
2023-01-13T08:38:49.072Z,6.14
2023-01-13T08:41:59.265Z,6.16
2023-01-13T08:44:49.368Z,6.20
2023-01-13T08:47:42.785Z,6.22
2023-01-13T08:50:33.310Z,6.23
2023-01-13T08:53:23.840Z,6.24
2023-01-13T08:56:15.301Z,6.25
2023-01-13T08:59:06.250Z,6.26
2023-01-13T09:01:56.647Z,6.28
2023-01-13T09:04:47.599Z,6.29
2023-01-13T09:07:39.211Z,6.30
2023-01-13T09:10:29.599Z,6.31
2023-01-13T09:13:21.918Z,6.30
2023-01-13T09:16:13.019Z,6.29
2023-01-13T09:19:03.591Z,6.29
2023-01-13T09:21:53.842Z,6.30
2023-01-13T09:24:44.416Z,6.30
2023-01-13T09:27:34.807Z,6.30
2023-01-13T09:30:25.517Z,6.30
2023-01-13T09:33:33.577Z,6.31
2023-01-13T09:36:24.188Z,6.33
2023-01-13T09:39:14.858Z,6.36
2023-01-13T09:42:43.046Z,6.40
2023-01-13T09:45:36.303Z,6.46
2023-01-13T09:48:31.508Z,6.52
2023-01-13T09:51:46.791Z,6.57
2023-01-13T09:54:41.363Z,6.62
2023-01-13T09:57:33.920Z,6.66
2023-01-13T10:00:25.756Z,6.70
2023-01-13T10:03:25.252Z,6.73
2023-01-13T10:06:21.634Z,6.78
2023-01-13T10:09:16.362Z,6.81
2023-01-13T10:12:40.792Z,6.85
2023-01-13T10:15:31.202Z,6.89
2023-01-13T10:18:25.454Z,6.94
2023-01-13T10:21:32.818Z,6.98
2023-01-13T10:24:27.412Z,7.01
2023-01-13T10:27:24.148Z,7.03
2023-01-13T10:30:20.458Z,7.07
2023-01-13T10:33:13.978Z,7.12
2023-01-13T10:36:05.443Z,7.18
2023-01-13T10:38:59.521Z,7.21
2023-01-13T10:41:49.815Z,7.25
2023-01-13T10:44:47.808Z,7.28
2023-01-13T10:47:40.141Z,7.31
2023-01-13T10:50:30.646Z,7.34
2023-01-13T10:53:24.662Z,7.38
2023-01-13T10:56:18.746Z,7.43
2023-01-13T10:59:14.905Z,7.48
2023-01-13T11:02:26.833Z,7.53
2023-01-13T11:05:23.029Z,7.58
2023-01-13T11:08:18.388Z,7.62
2023-01-13T11:11:31.260Z,7.66
2023-01-13T11:14:39.569Z,7.72
2023-01-13T11:17:40.703Z,7.76
2023-01-13T11:20:37.063Z,7.79
2023-01-13T11:23:32.796Z,7.82
2023-01-13T11:26:30.558Z,7.85
2023-01-13T11:29:27.034Z,7.88
2023-01-13T11:32:19.321Z,7.94
2023-01-13T11:35:19.760Z,8.00
2023-01-13T11:41:30.155Z,8.16
2023-01-13T11:44:25.644Z,8.25
2023-01-13T11:47:15.710Z,8.35
2023-01-13T11:50:43.924Z,8.46
2023-01-13T11:53:46.646Z,8.55
2023-01-13T11:57:00.535Z,8.75
2023-01-13T12:00:27.189Z,10.58
2023-01-13T12:04:00.448Z,13.35
2023-01-13T12:06:53.668Z,15.29
2023-01-13T12:09:52.694Z,16.46
2023-01-13T12:12:50.522Z,17.25
2023-01-13T12:15:57.195Z,18.13
2023-01-13T12:19:01.065Z,18.67
2023-01-13T12:21:59.908Z,19.26
2023-01-13T12:24:52.612Z,18.81
2023-01-13T12:27:47.296Z,17.15
2023-01-13T12:30:42.033Z,15.77
2023-01-13T12:34:09.865Z,14.69
2023-01-13T12:37:04.992Z,13.90
2023-01-13T12:40:01.897Z,13.70
2023-01-13T12:43:13.438Z,13.73
2023-01-13T12:46:21.209Z,13.78
2023-01-13T12:49:20.287Z,13.88
2023-01-13T12:52:15.425Z,13.98
2023-01-13T12:55:10.247Z,14.09
2023-01-13T12:58:22.664Z,14.26
2023-01-13T13:01:15.153Z,14.27
2023-01-13T13:04:13.076Z,14.32
2023-01-13T13:07:09.908Z,14.50
2023-01-13T13:10:04.308Z,14.61
2023-01-13T13:13:20.330Z,14.74
2023-01-13T13:16:26.847Z,14.79
2023-01-13T13:19:34.752Z,14.79
2023-01-13T13:22:38.864Z,14.77
2023-01-13T13:25:29.459Z,14.49
2023-01-13T13:28:24.413Z,14.45
2023-01-13T13:31:22.928Z,14.54
2023-01-13T13:34:23.982Z,13.97
2023-01-13T13:37:27.930Z,13.02
2023-01-13T13:40:47.220Z,12.27
2023-01-13T13:43:59.160Z,11.87
2023-01-13T13:46:50.461Z,11.57
2023-01-13T13:49:43.777Z,11.23
2023-01-13T13:52:37.925Z,10.97
2023-01-13T13:55:29.898Z,10.74
2023-01-13T13:58:20.495Z,10.59
2023-01-13T14:01:22.980Z,10.57
2023-01-13T14:04:15.670Z,10.55
2023-01-13T14:07:28.272Z,10.58
2023-01-13T14:10:24.925Z,10.56
2023-01-13T14:13:21.166Z,10.46
2023-01-13T14:16:15.100Z,10.32
2023-01-13T14:19:05.745Z,10.16
2023-01-13T14:21:56.196Z,10.08
2023-01-13T14:24:55.153Z,9.99
2023-01-13T14:27:45.373Z,9.81
2023-01-13T14:30:37.612Z,9.62
2023-01-13T14:33:34.220Z,9.46
2023-01-13T14:36:27.731Z,9.36
2023-01-13T14:39:40.441Z,9.28
2023-01-13T14:42:35.675Z,9.17
2023-01-13T14:45:27.461Z,9.04
2023-01-13T14:48:17.831Z,8.96
2023-01-13T14:51:11.061Z,8.88
2023-01-13T14:54:01.260Z,8.79
2023-01-13T14:57:12.714Z,8.69
2023-01-13T15:00:24.447Z,8.61
2023-01-13T15:03:16.691Z,8.56
2023-01-13T15:09:25.017Z,8.50
2023-01-13T15:12:33.707Z,8.41
2023-01-13T15:15:44.573Z,8.36
2023-01-13T15:18:55.883Z,8.29
2023-01-13T15:22:06.862Z,8.22
2023-01-13T15:25:17.792Z,8.18
2023-01-13T15:28:29.329Z,8.12
2023-01-13T15:31:40.194Z,8.05
2023-01-13T15:34:41.034Z,8.00
2023-01-13T15:37:52.522Z,7.93
2023-01-13T15:41:03.395Z,7.87
2023-01-13T15:44:32.605Z,7.81
2023-01-13T15:47:42.808Z,7.78
2023-01-13T15:50:53.664Z,7.75
2023-01-13T15:54:04.726Z,7.73
2023-01-13T15:57:21.408Z,7.69
2023-01-13T16:00:22.834Z,7.65
2023-01-13T16:03:33.676Z,7.60
2023-01-13T16:06:47.657Z,7.56
2023-01-13T16:09:49.499Z,7.54
2023-01-13T16:13:00.217Z,7.51
2023-01-13T16:16:30.985Z,7.49
2023-01-13T16:19:42.443Z,7.46
2023-01-13T16:22:53.585Z,7.44
2023-01-13T16:26:05.828Z,7.43
2023-01-13T16:29:17.205Z,7.42
2023-01-13T16:32:28.057Z,7.41
2023-01-13T16:36:09.446Z,7.39
2023-01-13T16:39:19.430Z,7.36
2023-01-13T16:42:30.242Z,7.32
2023-01-13T16:45:41.558Z,7.28
2023-01-13T16:48:53.733Z,7.26
2023-01-13T16:52:05.184Z,7.26
2023-01-13T16:55:16.130Z,7.27
2023-01-13T16:58:27.051Z,7.28
2023-01-13T17:01:39.779Z,7.27
2023-01-13T17:04:50.974Z,7.27
2023-01-13T17:08:01.896Z,7.26
2023-01-13T17:11:13.286Z,7.27
2023-01-13T17:14:24.748Z,7.29
2023-01-13T17:17:36.043Z,7.32
2023-01-13T17:20:29.651Z,7.33
2023-01-13T17:23:40.413Z,7.33
2023-01-13T17:26:52.357Z,7.34
2023-01-13T17:30:03.573Z,7.35
2023-01-13T17:33:14.830Z,7.37
2023-01-13T17:36:27.045Z,7.39
2023-01-13T17:39:37.787Z,7.42
2023-01-13T17:42:48.703Z,7.46
2023-01-13T17:45:59.772Z,7.50
2023-01-13T17:49:11.980Z,7.51
2023-01-13T17:52:23.021Z,7.52
2023-01-13T17:55:33.929Z,7.51
2023-01-13T17:58:45.720Z,7.50
2023-01-13T18:01:57.049Z,7.50
2023-01-13T18:05:08.688Z,7.52
2023-01-13T18:08:12.664Z,7.54
2023-01-13T18:11:24.317Z,7.57
2023-01-13T18:14:35.636Z,7.58
2023-01-13T18:17:47.359Z,7.60
2023-01-13T18:21:16.122Z,7.62
2023-01-13T18:24:47.277Z,7.63
2023-01-13T18:27:58.766Z,7.63
2023-01-13T18:31:10.375Z,7.63
2023-01-13T18:34:22.033Z,7.63
2023-01-13T18:37:33.191Z,7.61
2023-01-13T18:40:45.657Z,7.61
2023-01-13T18:43:56.638Z,7.59
2023-01-13T18:47:07.944Z,7.56
2023-01-13T18:50:19.003Z,7.55
2023-01-13T18:53:29.958Z,7.52
2023-01-13T18:56:47.070Z,7.49
2023-01-13T19:00:00.157Z,7.44
2023-01-13T19:03:13.048Z,7.39
2023-01-13T19:06:24.295Z,7.36
2023-01-13T19:09:35.098Z,7.35
2023-01-13T19:12:45.940Z,7.36
2023-01-13T19:15:50.126Z,7.38
2023-01-13T19:19:01.347Z,7.38
2023-01-13T19:22:13.062Z,7.38
2023-01-13T19:25:24.080Z,7.38
2023-01-13T19:28:35.397Z,7.37
2023-01-13T19:31:46.804Z,7.41
2023-01-13T19:34:59.470Z,7.50
2023-01-13T19:38:10.726Z,7.59
2023-01-13T19:41:39.411Z,7.65
2023-01-13T19:45:08.069Z,7.70
2023-01-13T19:48:19.056Z,7.76
2023-01-13T19:51:30.379Z,7.80
2023-01-13T19:54:41.945Z,7.83
2023-01-13T19:57:53.354Z,7.86
2023-01-13T20:00:49.062Z,7.87
2023-01-13T20:04:03.350Z,7.86
2023-01-13T20:07:14.883Z,7.85
2023-01-13T20:10:25.780Z,7.85
2023-01-13T20:13:36.718Z,7.87
2023-01-13T20:16:48.266Z,7.92
2023-01-13T20:19:59.133Z,7.97
2023-01-13T20:23:10.918Z,8.02
2023-01-13T20:26:22.179Z,8.06
2023-01-13T20:29:33.522Z,8.11
2023-01-13T20:32:45.076Z,8.12
2023-01-13T20:36:24.942Z,8.10
2023-01-13T20:39:36.432Z,8.09
2023-01-13T20:42:48.189Z,8.15
2023-01-13T20:45:59.126Z,8.21
2023-01-13T20:49:12.330Z,8.26
2023-01-13T20:52:23.347Z,8.29
2023-01-13T20:56:20.998Z,8.32
2023-01-13T20:59:06.621Z,8.34
2023-01-13T21:02:18.164Z,8.38
2023-01-13T21:05:29.985Z,8.43
2023-01-13T21:08:34.022Z,8.49
2023-01-13T21:12:02.387Z,8.55
2023-01-13T21:15:20.377Z,8.61
2023-01-13T21:18:48.724Z,8.68
2023-01-13T21:21:59.697Z,8.77
2023-01-13T21:25:14.567Z,8.85
2023-01-13T21:28:19.873Z,8.90
2023-01-13T21:31:36.693Z,8.93
2023-01-13T21:34:47.768Z,8.96
2023-01-13T21:37:51.111Z,9.02
2023-01-13T21:41:05.797Z,9.06
2023-01-13T21:44:34.407Z,9.08
2023-01-13T21:47:52.437Z,9.07
2023-01-13T21:50:55.958Z,9.04
2023-01-13T21:54:06.921Z,9.02
2023-01-13T21:57:18.404Z,9.00
2023-01-13T22:00:31.050Z,9.00
2023-01-13T22:03:59.492Z,9.01
2023-01-13T22:07:10.733Z,9.00
2023-01-13T22:10:23.131Z,8.99
2023-01-13T22:13:51.454Z,9.01
2023-01-13T22:17:04.430Z,9.05
2023-01-13T22:20:18.508Z,9.10
2023-01-13T22:23:29.581Z,9.14
2023-01-13T22:26:40.491Z,9.16
2023-01-13T22:29:52.396Z,9.17
2023-01-13T22:33:20.445Z,9.18
2023-01-13T22:36:31.687Z,9.16
2023-01-13T22:39:42.495Z,9.15
2023-01-13T22:42:53.289Z,9.12
2023-01-13T22:46:07.090Z,9.09
2023-01-13T22:49:18.773Z,9.06
2023-01-13T22:52:22.718Z,9.04
2023-01-13T22:55:33.609Z,9.04
2023-01-13T22:58:45.084Z,9.03
2023-01-13T23:01:56.021Z,9.03
2023-01-13T23:05:07.386Z,9.03
2023-01-13T23:08:18.405Z,9.02
2023-01-13T23:11:30.143Z,9.00
2023-01-13T23:14:41.316Z,8.97
2023-01-13T23:17:52.872Z,8.94
2023-01-13T23:21:07.927Z,8.92
2023-01-13T23:24:18.942Z,8.91
2023-01-13T23:27:30.316Z,8.91
2023-01-13T23:30:42.384Z,8.92
2023-01-13T23:33:53.296Z,8.93
2023-01-13T23:37:04.226Z,8.96
2023-01-13T23:40:15.387Z,8.98
2023-01-13T23:43:27.409Z,8.99
2023-01-13T23:46:38.282Z,9.00
2023-01-13T23:49:49.202Z,8.99
2023-01-13T23:53:00.045Z,9.00
2023-01-13T23:56:13.949Z,9.00
2023-01-13T23:59:24.951Z,8.94
